sensor_id;sensor_type;location;lat;lon;timestamp;pressure;altitude;pressure_sealevel;temperature;humidity
77631;BME280;66798;47.370;8.552;2023-03-20T05:54:11;97087.22;;;6.67;87.51
77631;BME280;66798;47.370;8.552;2023-03-20T05:56:36;97089.50;;;6.87;87.63
77631;BME280;66798;47.370;8.552;2023-03-20T05:59:01;97089.31;;;7.05;86.61
77631;BME280;66798;47.370;8.552;2023-03-20T06:01:27;97095.31;;;7.17;85.87
77631;BME280;66798;47.370;8.552;2023-03-20T06:03:52;97090.69;;;7.36;86.56
77631;BME280;66798;47.370;8.552;2023-03-20T06:06:18;97097.97;;;7.46;84.88
77631;BME280;66798;47.370;8.552;2023-03-20T06:08:43;97084.25;;;7.39;84.37
77631;BME280;66798;47.370;8.552;2023-03-20T06:11:09;97080.53;;;7.23;83.98
77631;BME280;66798;47.370;8.552;2023-03-20T06:13:35;97072.78;;;7.28;84.31
77631;BME280;66798;47.370;8.552;2023-03-20T06:16:00;97076.88;;;7.24;84.39
77631;BME280;66798;47.370;8.552;2023-03-20T06:18:26;97083.38;;;7.21;83.83
77631;BME280;66798;47.370;8.552;2023-03-20T06:20:53;97086.50;;;7.35;84.71
77631;BME280;66798;47.370;8.552;2023-03-20T06:23:19;97085.28;;;7.55;83.31
77631;BME280;66798;47.370;8.552;2023-03-20T06:25:44;97087.34;;;8.32;83.56
77631;BME280;66798;47.370;8.552;2023-03-20T06:28:10;97081.97;;;8.78;80.27
77631;BME280;66798;47.370;8.552;2023-03-20T06:30:35;97090.66;;;8.61;79.01
77631;BME280;66798;47.370;8.552;2023-03-20T06:33:01;97082.97;;;8.38;80.19
77631;BME280;66798;47.370;8.552;2023-03-20T06:35:27;97078.69;;;8.15;80.91
77631;BME280;66798;47.370;8.552;2023-03-20T06:37:56;97084.88;;;8.08;81.40
77631;BME280;66798;47.370;8.552;2023-03-20T06:40:22;97088.63;;;8.85;79.19
77631;BME280;66798;47.370;8.552;2023-03-20T06:42:47;97089.38;;;9.25;77.32
77631;BME280;66798;47.370;8.552;2023-03-20T06:45:13;97095.38;;;10.34;74.64
77631;BME280;66798;47.370;8.552;2023-03-20T06:47:38;97092.56;;;11.77;70.71
77631;BME280;66798;47.370;8.552;2023-03-20T06:50:04;97092.59;;;12.59;66.19
77631;BME280;66798;47.370;8.552;2023-03-20T06:52:29;97101.56;;;13.43;62.54
77631;BME280;66798;47.370;8.552;2023-03-20T06:54:55;97104.31;;;13.72;61.42
77631;BME280;66798;47.370;8.552;2023-03-20T06:57:21;97112.03;;;15.20;56.40
77631;BME280;66798;47.370;8.552;2023-03-20T06:59:47;97106.91;;;14.80;58.37
77631;BME280;66798;47.370;8.552;2023-03-20T07:02:12;97107.94;;;14.55;59.13
77631;BME280;66798;47.370;8.552;2023-03-20T07:04:38;97110.44;;;16.65;53.36
77631;BME280;66798;47.370;8.552;2023-03-20T07:07:04;97118.19;;;15.77;52.47
77631;BME280;66798;47.370;8.552;2023-03-20T07:09:29;97119.19;;;14.71;55.00
77631;BME280;66798;47.370;8.552;2023-03-20T07:11:55;97123.81;;;16.27;54.06
77631;BME280;66798;47.370;8.552;2023-03-20T07:14:20;97120.84;;;17.36;51.36
77631;BME280;66798;47.370;8.552;2023-03-20T07:16:47;97125.91;;;15.12;54.87
77631;BME280;66798;47.370;8.552;2023-03-20T07:19:13;97116.69;;;13.17;60.45
77631;BME280;66798;47.370;8.552;2023-03-20T07:21:39;97112.44;;;13.31;61.36
77631;BME280;66798;47.370;8.552;2023-03-20T07:24:05;97108.84;;;12.96;61.13
77631;BME280;66798;47.370;8.552;2023-03-20T07:26:31;97112.72;;;13.79;59.25
77631;BME280;66798;47.370;8.552;2023-03-20T07:28:57;97107.66;;;14.57;56.28
77631;BME280;66798;47.370;8.552;2023-03-20T07:31:25;97106.88;;;14.56;58.05
77631;BME280;66798;47.370;8.552;2023-03-20T07:33:51;97103.44;;;17.66;48.89
77631;BME280;66798;47.370;8.552;2023-03-20T07:36:16;97102.38;;;14.57;53.70
77631;BME280;66798;47.370;8.552;2023-03-20T07:38:42;97103.88;;;13.99;56.46
77631;BME280;66798;47.370;8.552;2023-03-20T07:41:08;97097.22;;;13.03;59.50
77631;BME280;66798;47.370;8.552;2023-03-20T07:43:33;97104.41;;;14.01;57.18
77631;BME280;66798;47.370;8.552;2023-03-20T07:46:03;97104.78;;;13.25;57.94
77631;BME280;66798;47.370;8.552;2023-03-20T07:48:28;97112.38;;;12.20;60.40
77631;BME280;66798;47.370;8.552;2023-03-20T07:50:54;97102.91;;;10.57;64.93
77631;BME280;66798;47.370;8.552;2023-03-20T07:53:20;97102.00;;;11.57;63.75
77631;BME280;66798;47.370;8.552;2023-03-20T07:55:45;97093.94;;;12.05;61.96
77631;BME280;66798;47.370;8.552;2023-03-20T07:58:11;97098.25;;;11.27;64.09
77631;BME280;66798;47.370;8.552;2023-03-20T08:00:36;97095.19;;;10.93;65.79
77631;BME280;66798;47.370;8.552;2023-03-20T08:03:02;97101.75;;;10.91;64.29
77631;BME280;66798;47.370;8.552;2023-03-20T08:05:28;97102.72;;;10.32;66.73
77631;BME280;66798;47.370;8.552;2023-03-20T08:07:53;97113.16;;;11.01;63.76
77631;BME280;66798;47.370;8.552;2023-03-20T08:10:19;97111.66;;;11.21;64.51
77631;BME280;66798;47.370;8.552;2023-03-20T08:12:44;97115.31;;;10.67;64.68
77631;BME280;66798;47.370;8.552;2023-03-20T08:15:10;97120.91;;;11.39;62.79
77631;BME280;66798;47.370;8.552;2023-03-20T08:17:35;97117.06;;;11.77;60.61
77631;BME280;66798;47.370;8.552;2023-03-20T08:20:01;97116.31;;;12.64;57.69
77631;BME280;66798;47.370;8.552;2023-03-20T08:22:26;97111.00;;;13.59;56.41
77631;BME280;66798;47.370;8.552;2023-03-20T08:24:52;97105.28;;;13.42;53.63
77631;BME280;66798;47.370;8.552;2023-03-20T08:27:17;97110.34;;;14.47;53.32
77631;BME280;66798;47.370;8.552;2023-03-20T08:29:43;97113.97;;;17.21;46.08
77631;BME280;66798;47.370;8.552;2023-03-20T08:32:08;97112.38;;;17.84;45.66
77631;BME280;66798;47.370;8.552;2023-03-20T08:34:34;97128.84;;;19.16;39.99
77631;BME280;66798;47.370;8.552;2023-03-20T08:37:02;97119.28;;;19.90;38.86
77631;BME280;66798;47.370;8.552;2023-03-20T08:39:28;97119.13;;;19.69;37.35
77631;BME280;66798;47.370;8.552;2023-03-20T08:41:53;97120.63;;;17.46;43.97
77631;BME280;66798;47.370;8.552;2023-03-20T08:44:19;97114.53;;;17.96;41.66
77631;BME280;66798;47.370;8.552;2023-03-20T08:46:44;97121.47;;;18.06;40.78
77631;BME280;66798;47.370;8.552;2023-03-20T08:49:10;97121.22;;;18.61;40.96
77631;BME280;66798;47.370;8.552;2023-03-20T08:51:36;97124.66;;;19.33;39.27
77631;BME280;66798;47.370;8.552;2023-03-20T08:54:01;97110.41;;;16.51;42.98
77631;BME280;66798;47.370;8.552;2023-03-20T08:56:27;97115.34;;;15.92;46.02
77631;BME280;66798;47.370;8.552;2023-03-20T08:58:52;97109.44;;;17.08;44.13
77631;BME280;66798;47.370;8.552;2023-03-20T09:01:20;97118.22;;;18.85;40.17
77631;BME280;66798;47.370;8.552;2023-03-20T09:03:46;97110.13;;;17.00;41.22
77631;BME280;66798;47.370;8.552;2023-03-20T09:06:11;97119.06;;;16.43;43.51
77631;BME280;66798;47.370;8.552;2023-03-20T09:08:37;97120.81;;;15.58;44.36
77631;BME280;66798;47.370;8.552;2023-03-20T09:11:03;97115.91;;;14.79;46.77
77631;BME280;66798;47.370;8.552;2023-03-20T09:13:29;97118.59;;;13.71;50.97
77631;BME280;66798;47.370;8.552;2023-03-20T09:15:55;97117.22;;;13.24;53.26
77631;BME280;66798;47.370;8.552;2023-03-20T09:18:21;97128.88;;;13.13;53.53
77631;BME280;66798;47.370;8.552;2023-03-20T09:20:47;97125.50;;;12.92;54.70
77631;BME280;66798;47.370;8.552;2023-03-20T09:23:13;97123.94;;;12.81;55.74
77631;BME280;66798;47.370;8.552;2023-03-20T09:25:38;97125.25;;;12.83;56.47
77631;BME280;66798;47.370;8.552;2023-03-20T09:28:04;97128.44;;;12.70;56.47
77631;BME280;66798;47.370;8.552;2023-03-20T09:30:29;97119.50;;;12.09;58.43
77631;BME280;66798;47.370;8.552;2023-03-20T09:32:55;97118.66;;;11.83;57.89
77631;BME280;66798;47.370;8.552;2023-03-20T09:35:20;97122.56;;;13.09;55.78
77631;BME280;66798;47.370;8.552;2023-03-20T09:37:46;97131.09;;;12.80;55.25
77631;BME280;66798;47.370;8.552;2023-03-20T09:51:37;97127.34;;;14.11;51.87
77631;BME280;66798;47.370;8.552;2023-03-20T09:56:49;97123.13;;;14.74;49.39
77631;BME280;66798;47.370;8.552;2023-03-20T09:59:18;97124.91;;;15.69;47.17
77631;BME280;66798;47.370;8.552;2023-03-20T10:01:54;97124.09;;;14.19;51.31
77631;BME280;66798;47.370;8.552;2023-03-20T10:04:25;97125.19;;;15.68;47.74
77631;BME280;66798;47.370;8.552;2023-03-20T10:06:52;97117.78;;;15.70;48.40
77631;BME280;66798;47.370;8.552;2023-03-20T10:09:23;97120.25;;;16.51;45.46
77631;BME280;66798;47.370;8.552;2023-03-20T10:17:50;97121.47;;;16.72;43.55
77631;BME280;66798;47.370;8.552;2023-03-20T10:20:34;97116.50;;;16.98;42.31
77631;BME280;66798;47.370;8.552;2023-03-20T10:23:25;97110.34;;;16.70;42.61
77631;BME280;66798;47.370;8.552;2023-03-20T10:26:00;97116.25;;;15.21;47.29
77631;BME280;66798;47.370;8.552;2023-03-20T10:28:33;97110.84;;;16.26;45.17
77631;BME280;66798;47.370;8.552;2023-03-20T10:36:50;97116.66;;;15.52;45.99
77631;BME280;66798;47.370;8.552;2023-03-20T10:42:18;97110.97;;;14.38;49.77
77631;BME280;66798;47.370;8.552;2023-03-20T10:44:51;97114.47;;;14.92;48.46
77631;BME280;66798;47.370;8.552;2023-03-20T10:47:22;97102.38;;;16.24;45.48
77631;BME280;66798;47.370;8.552;2023-03-20T10:50:00;97090.94;;;15.53;45.80
77631;BME280;66798;47.370;8.552;2023-03-20T10:52:31;97088.75;;;17.18;43.87
77631;BME280;66798;47.370;8.552;2023-03-20T10:55:09;97087.44;;;18.16;40.76
77631;BME280;66798;47.370;8.552;2023-03-20T10:57:41;97089.59;;;17.78;41.57
77631;BME280;66798;47.370;8.552;2023-03-20T11:00:20;97094.44;;;18.12;39.01
77631;BME280;66798;47.370;8.552;2023-03-20T11:02:47;97091.66;;;17.45;40.58
77631;BME280;66798;47.370;8.552;2023-03-20T11:05:30;97091.81;;;17.26;42.18
77631;BME280;66798;47.370;8.552;2023-03-20T11:08:05;97100.91;;;16.64;43.00
77631;BME280;66798;47.370;8.552;2023-03-20T11:10:34;97095.78;;;14.54;46.09
77631;BME280;66798;47.370;8.552;2023-03-20T11:13:21;97092.75;;;15.95;43.72
77631;BME280;66798;47.370;8.552;2023-03-20T11:15:51;97096.34;;;17.11;42.74
77631;BME280;66798;47.370;8.552;2023-03-20T11:18:17;97098.19;;;17.11;41.51
77631;BME280;66798;47.370;8.552;2023-03-20T11:20:46;97100.34;;;16.34;43.81
77631;BME280;66798;47.370;8.552;2023-03-20T11:23:16;97099.97;;;17.15;40.87
77631;BME280;66798;47.370;8.552;2023-03-20T11:25:55;97099.66;;;16.89;41.28
77631;BME280;66798;47.370;8.552;2023-03-20T11:31:42;97094.06;;;16.30;41.52
77631;BME280;66798;47.370;8.552;2023-03-20T11:36:37;97086.56;;;17.20;40.64
77631;BME280;66798;47.370;8.552;2023-03-20T11:39:12;97089.88;;;17.54;39.16
77631;BME280;66798;47.370;8.552;2023-03-20T11:42:01;97097.81;;;16.43;41.69
77631;BME280;66798;47.370;8.552;2023-03-20T11:44:32;97084.66;;;17.49;40.31
77631;BME280;66798;47.370;8.552;2023-03-20T11:49:24;97098.72;;;17.63;39.68
77631;BME280;66798;47.370;8.552;2023-03-20T11:51:53;97091.72;;;17.81;39.51
77631;BME280;66798;47.370;8.552;2023-03-20T11:54:22;97099.84;;;17.48;38.60
77631;BME280;66798;47.370;8.552;2023-03-20T11:56:58;97100.25;;;15.07;42.70
77631;BME280;66798;47.370;8.552;2023-03-20T11:59:35;97095.03;;;13.80;46.50
77631;BME280;66798;47.370;8.552;2023-03-20T12:02:18;97091.06;;;14.99;43.72
77631;BME280;66798;47.370;8.552;2023-03-20T12:04:46;97088.84;;;14.53;45.99
77631;BME280;66798;47.370;8.552;2023-03-20T12:07:33;97086.53;;;15.86;43.35
77631;BME280;66798;47.370;8.552;2023-03-20T12:10:11;97090.84;;;16.61;40.48
77631;BME280;66798;47.370;8.552;2023-03-20T12:12:49;97099.56;;;15.82;42.35
77631;BME280;66798;47.370;8.552;2023-03-20T12:15:26;97086.22;;;15.49;44.06
77631;BME280;66798;47.370;8.552;2023-03-20T12:18:37;97082.53;;;15.26;45.15
77631;BME280;66798;47.370;8.552;2023-03-20T12:23:45;97079.16;;;15.59;43.57
77631;BME280;66798;47.370;8.552;2023-03-20T12:26:27;97079.84;;;15.07;44.48
77631;BME280;66798;47.370;8.552;2023-03-20T12:32:16;97077.31;;;14.97;45.24
77631;BME280;66798;47.370;8.552;2023-03-20T12:34:50;97071.13;;;14.83;46.04
77631;BME280;66798;47.370;8.552;2023-03-20T12:37:18;97069.13;;;15.37;43.73
77631;BME280;66798;47.370;8.552;2023-03-20T12:39:54;97073.75;;;15.07;44.28
77631;BME280;66798;47.370;8.552;2023-03-20T12:42:36;97067.94;;;15.05;44.56
77631;BME280;66798;47.370;8.552;2023-03-20T12:45:18;97058.13;;;15.86;42.85
77631;BME280;66798;47.370;8.552;2023-03-20T12:51:02;97062.81;;;14.90;43.48
77631;BME280;66798;47.370;8.552;2023-03-20T12:54:02;97058.19;;;14.52;45.03
77631;BME280;66798;47.370;8.552;2023-03-20T12:59:30;97063.06;;;15.36;43.99
77631;BME280;66798;47.370;8.552;2023-03-20T13:04:54;97058.69;;;15.45;43.63
77631;BME280;66798;47.370;8.552;2023-03-20T13:10:42;97054.63;;;16.24;41.41
77631;BME280;66798;47.370;8.552;2023-03-20T13:13:19;97055.56;;;16.14;41.63
77631;BME280;66798;47.370;8.552;2023-03-20T13:16:19;97049.03;;;15.74;41.87
77631;BME280;66798;47.370;8.552;2023-03-20T13:21:51;97038.34;;;15.60;42.15
77631;BME280;66798;47.370;8.552;2023-03-20T13:29:49;97041.84;;;15.93;41.17
77631;BME280;66798;47.370;8.552;2023-03-20T13:35:40;97037.50;;;15.83;43.77
77631;BME280;66798;47.370;8.552;2023-03-20T13:38:21;97032.50;;;14.77;44.06
77631;BME280;66798;47.370;8.552;2023-03-20T13:41:00;97034.22;;;15.11;43.19
77631;BME280;66798;47.370;8.552;2023-03-20T13:43:56;97029.94;;;15.90;42.16
77631;BME280;66798;47.370;8.552;2023-03-20T13:49:23;97029.56;;;15.02;44.27
77631;BME280;66798;47.370;8.552;2023-03-20T13:52:00;97031.13;;;14.02;47.01
77631;BME280;66798;47.370;8.552;2023-03-20T13:54:51;97023.91;;;13.78;47.32
77631;BME280;66798;47.370;8.552;2023-03-20T14:03:34;97020.59;;;13.92;47.53
77631;BME280;66798;47.370;8.552;2023-03-20T14:06:42;97016.19;;;14.16;46.60
77631;BME280;66798;47.370;8.552;2023-03-20T14:11:58;97001.88;;;14.71;46.05
77631;BME280;66798;47.370;8.552;2023-03-20T14:14:29;97000.09;;;15.09;45.15
77631;BME280;66798;47.370;8.552;2023-03-20T14:17:18;96992.16;;;16.12;43.39
77631;BME280;66798;47.370;8.552;2023-03-20T14:19:45;96991.19;;;15.76;42.87
77631;BME280;66798;47.370;8.552;2023-03-20T14:22:34;96985.91;;;16.36;42.22
77631;BME280;66798;47.370;8.552;2023-03-20T14:25:21;96978.94;;;15.93;41.61
77631;BME280;66798;47.370;8.552;2023-03-20T14:27:57;96978.31;;;14.45;45.09
77631;BME280;66798;47.370;8.552;2023-03-20T14:35:50;96974.19;;;13.80;45.25
77631;BME280;66798;47.370;8.552;2023-03-20T14:50:30;96958.69;;;15.84;40.19
77631;BME280;66798;47.370;8.552;2023-03-20T14:59:00;96952.81;;;16.01;40.34
77631;BME280;66798;47.370;8.552;2023-03-20T15:06:59;96938.88;;;15.95;42.26
77631;BME280;66798;47.370;8.552;2023-03-20T15:09:30;96941.22;;;14.93;43.69
77631;BME280;66798;47.370;8.552;2023-03-20T15:11:58;96944.06;;;15.16;44.30
77631;BME280;66798;47.370;8.552;2023-03-20T15:14:34;96940.94;;;15.14;43.57
77631;BME280;66798;47.370;8.552;2023-03-20T15:17:03;96943.19;;;14.63;43.73
77631;BME280;66798;47.370;8.552;2023-03-20T15:19:29;96943.66;;;14.17;43.84
77631;BME280;66798;47.370;8.552;2023-03-20T15:21:55;96947.44;;;13.82;45.10
77631;BME280;66798;47.370;8.552;2023-03-20T15:24:23;96940.13;;;13.74;47.21
77631;BME280;66798;47.370;8.552;2023-03-20T15:26:58;96934.50;;;14.34;44.63
77631;BME280;66798;47.370;8.552;2023-03-20T15:29:25;96937.09;;;14.15;46.14
77631;BME280;66798;47.370;8.552;2023-03-20T15:31:58;96944.50;;;14.37;45.05
77631;BME280;66798;47.370;8.552;2023-03-20T15:34:31;96937.19;;;14.77;44.13
77631;BME280;66798;47.370;8.552;2023-03-20T15:36:59;96934.47;;;14.82;43.12
77631;BME280;66798;47.370;8.552;2023-03-20T15:39:28;96934.81;;;14.75;43.30
77631;BME280;66798;47.370;8.552;2023-03-20T15:41:57;96931.38;;;14.51;44.50
77631;BME280;66798;47.370;8.552;2023-03-20T15:46:52;96931.25;;;13.89;45.05
77631;BME280;66798;47.370;8.552;2023-03-20T15:49:19;96928.06;;;13.63;46.30
77631;BME280;66798;47.370;8.552;2023-03-20T15:51:46;96924.09;;;13.26;46.55
77631;BME280;66798;47.370;8.552;2023-03-20T15:54:15;96927.66;;;13.06;47.89
77631;BME280;66798;47.370;8.552;2023-03-20T15:56:44;96928.44;;;13.11;47.25
77631;BME280;66798;47.370;8.552;2023-03-20T15:59:18;96927.31;;;13.17;46.61
77631;BME280;66798;47.370;8.552;2023-03-20T16:01:47;96930.84;;;13.47;46.37
77631;BME280;66798;47.370;8.552;2023-03-20T16:04:16;96930.94;;;13.27;46.85
77631;BME280;66798;47.370;8.552;2023-03-20T16:09:14;96923.22;;;13.41;46.48
77631;BME280;66798;47.370;8.552;2023-03-20T16:11:44;96924.38;;;13.24;47.16
77631;BME280;66798;47.370;8.552;2023-03-20T16:14:21;96919.19;;;13.09;47.80
77631;BME280;66798;47.370;8.552;2023-03-20T16:16:50;96922.94;;;13.03;48.60
77631;BME280;66798;47.370;8.552;2023-03-20T16:19:17;96922.19;;;12.97;47.75
77631;BME280;66798;47.370;8.552;2023-03-20T16:21:55;96920.94;;;12.79;47.87
77631;BME280;66798;47.370;8.552;2023-03-20T16:24:43;96919.75;;;12.56;48.42
77631;BME280;66798;47.370;8.552;2023-03-20T16:27:14;96919.56;;;12.37;48.87
77631;BME280;66798;47.370;8.552;2023-03-20T16:29:42;96921.97;;;12.28;49.13
77631;BME280;66798;47.370;8.552;2023-03-20T16:32:23;96916.97;;;12.22;49.34
77631;BME280;66798;47.370;8.552;2023-03-20T16:34:55;96923.28;;;12.26;49.81
77631;BME280;66798;47.370;8.552;2023-03-20T16:37:27;96921.47;;;12.21;49.21
77631;BME280;66798;47.370;8.552;2023-03-20T16:43:18;96928.88;;;12.14;49.07
77631;BME280;66798;47.370;8.552;2023-03-20T16:45:52;96930.13;;;12.32;48.49
77631;BME280;66798;47.370;8.552;2023-03-20T16:48:23;96930.34;;;12.46;48.57
77631;BME280;66798;47.370;8.552;2023-03-20T16:50:59;96926.66;;;12.42;48.60
77631;BME280;66798;47.370;8.552;2023-03-20T16:53:30;96932.75;;;12.42;48.74
77631;BME280;66798;47.370;8.552;2023-03-20T16:56:01;96935.91;;;12.34;48.91
77631;BME280;66798;47.370;8.552;2023-03-20T16:58:31;96934.38;;;12.18;49.11
77631;BME280;66798;47.370;8.552;2023-03-20T17:01:00;96933.06;;;12.15;48.56
77631;BME280;66798;47.370;8.552;2023-03-20T17:03:29;96930.22;;;12.06;49.39
77631;BME280;66798;47.370;8.552;2023-03-20T17:08:50;96931.81;;;11.97;49.82
77631;BME280;66798;47.370;8.552;2023-03-20T17:11:36;96934.72;;;11.80;50.09
77631;BME280;66798;47.370;8.552;2023-03-20T17:14:03;96935.22;;;11.67;50.89
77631;BME280;66798;47.370;8.552;2023-03-20T17:16:30;96941.56;;;11.56;51.21
77631;BME280;66798;47.370;8.552;2023-03-20T17:21:27;96935.22;;;11.36;52.38
77631;BME280;66798;47.370;8.552;2023-03-20T17:23:54;96940.75;;;11.24;52.60
77631;BME280;66798;47.370;8.552;2023-03-20T17:26:19;96935.47;;;11.14;52.90
77631;BME280;66798;47.370;8.552;2023-03-20T17:28:45;96939.44;;;11.17;53.04
77631;BME280;66798;47.370;8.552;2023-03-20T17:31:13;96942.84;;;11.12;53.88
77631;BME280;66798;47.370;8.552;2023-03-20T17:33:40;96941.53;;;11.15;53.54
77631;BME280;66798;47.370;8.552;2023-03-20T17:36:27;96947.34;;;11.17;53.14
77631;BME280;66798;47.370;8.552;2023-03-20T17:38:54;96946.03;;;11.19;53.24
77631;BME280;66798;47.370;8.552;2023-03-20T17:41:21;96946.03;;;11.19;53.07
77631;BME280;66798;47.370;8.552;2023-03-20T17:43:47;96941.53;;;11.20;53.52
77631;BME280;66798;47.370;8.552;2023-03-20T17:46:18;96947.88;;;11.19;52.89
77631;BME280;66798;47.370;8.552;2023-03-20T17:48:45;96947.34;;;11.17;53.46
77631;BME280;66798;47.370;8.552;2023-03-20T17:51:11;96945.47;;;11.12;54.25
77631;BME280;66798;47.370;8.552;2023-03-20T17:53:37;96949.19;;;11.11;54.66
77631;BME280;66798;47.370;8.552;2023-03-20T17:56:09;96948.66;;;11.09;54.66
77631;BME280;66798;47.370;8.552;2023-03-20T17:58:35;96952.31;;;11.03;55.18
77631;BME280;66798;47.370;8.552;2023-03-20T18:01:01;96954.69;;;10.94;55.28
77631;BME280;66798;47.370;8.552;2023-03-20T18:03:26;96954.38;;;10.86;55.64
77631;BME280;66798;47.370;8.552;2023-03-20T18:05:52;96952.81;;;10.84;55.24
77631;BME280;66798;47.370;8.552;2023-03-20T18:08:20;96950.69;;;10.87;55.52
77631;BME280;66798;47.370;8.552;2023-03-20T18:10:51;96945.94;;;10.73;56.26
77631;BME280;66798;47.370;8.552;2023-03-20T18:13:18;96956.66;;;10.56;57.01
77631;BME280;66798;47.370;8.552;2023-03-20T18:16:03;96943.19;;;10.48;57.57
77631;BME280;66798;47.370;8.552;2023-03-20T18:18:29;96954.47;;;10.43;58.05
77631;BME280;66798;47.370;8.552;2023-03-20T18:20:54;96960.25;;;10.40;58.76
77631;BME280;66798;47.370;8.552;2023-03-20T18:23:21;96951.06;;;10.37;58.96
77631;BME280;66798;47.370;8.552;2023-03-20T18:25:47;96953.13;;;10.35;59.02
77631;BME280;66798;47.370;8.552;2023-03-20T18:28:15;96955.75;;;10.30;59.39
77631;BME280;66798;47.370;8.552;2023-03-20T18:30:47;96954.41;;;10.28;59.70
77631;BME280;66798;47.370;8.552;2023-03-20T18:33:13;96943.59;;;10.24;59.49
77631;BME280;66798;47.370;8.552;2023-03-20T18:35:39;96955.16;;;10.23;60.01
77631;BME280;66798;47.370;8.552;2023-03-20T18:38:04;96950.38;;;10.20;59.47
77631;BME280;66798;47.370;8.552;2023-03-20T18:40:35;96947.75;;;10.15;60.21
77631;BME280;66798;47.370;8.552;2023-03-20T18:43:01;96945.59;;;10.07;60.59
77631;BME280;66798;47.370;8.552;2023-03-20T18:45:29;96955.00;;;9.97;61.06
77631;BME280;66798;47.370;8.552;2023-03-20T18:47:56;96954.16;;;9.87;61.01
77631;BME280;66798;47.370;8.552;2023-03-20T18:50:23;96954.84;;;9.77;61.38
77631;BME280;66798;47.370;8.552;2023-03-20T18:52:52;96951.41;;;9.71;61.34
77631;BME280;66798;47.370;8.552;2023-03-20T18:55:19;96958.81;;;9.79;61.63
77631;BME280;66798;47.370;8.552;2023-03-20T18:57:45;96957.25;;;9.78;61.56
77631;BME280;66798;47.370;8.552;2023-03-20T19:00:18;96949.38;;;9.84;61.89
77631;BME280;66798;47.370;8.552;2023-03-20T19:02:49;96956.78;;;9.87;61.89
77631;BME280;66798;47.370;8.552;2023-03-20T19:05:16;96952.34;;;9.92;61.57
77631;BME280;66798;47.370;8.552;2023-03-20T19:07:44;96965.25;;;9.94;61.28
77631;BME280;66798;47.370;8.552;2023-03-20T19:10:27;96953.13;;;9.93;60.98
77631;BME280;66798;47.370;8.552;2023-03-20T19:12:53;96957.63;;;9.97;60.16
77631;BME280;66798;47.370;8.552;2023-03-20T19:15:20;96955.00;;;9.97;60.00
77631;BME280;66798;47.370;8.552;2023-03-20T19:17:46;96946.13;;;10.04;60.57
77631;BME280;66798;47.370;8.552;2023-03-20T19:22:52;96952.69;;;10.06;60.79
77631;BME280;66798;47.370;8.552;2023-03-20T19:25:18;96958.78;;;10.12;60.65
77631;BME280;66798;47.370;8.552;2023-03-20T19:27:43;96952.72;;;10.11;60.85
77631;BME280;66798;47.370;8.552;2023-03-20T19:30:22;96952.97;;;10.10;61.31
77631;BME280;66798;47.370;8.552;2023-03-20T19:32:50;96960.34;;;10.13;61.82
77631;BME280;66798;47.370;8.552;2023-03-20T19:35:15;96963.97;;;10.02;61.78
77631;BME280;66798;47.370;8.552;2023-03-20T19:37:41;96963.47;;;10.05;62.01
77631;BME280;66798;47.370;8.552;2023-03-20T19:42:44;96957.16;;;10.06;61.42
77631;BME280;66798;47.370;8.552;2023-03-20T19:45:10;96972.44;;;10.14;61.41
77631;BME280;66798;47.370;8.552;2023-03-20T19:47:35;96972.22;;;10.15;61.32
77631;BME280;66798;47.370;8.552;2023-03-20T19:50:01;96971.94;;;10.17;61.21
77631;BME280;66798;47.370;8.552;2023-03-20T19:52:30;96984.06;;;10.18;61.26
77631;BME280;66798;47.370;8.552;2023-03-20T19:54:58;96980.88;;;10.16;61.16
77631;BME280;66798;47.370;8.552;2023-03-20T19:57:23;96982.44;;;10.17;61.29
77631;BME280;66798;47.370;8.552;2023-03-20T19:59:49;96984.84;;;10.18;61.62
77631;BME280;66798;47.370;8.552;2023-03-20T20:02:14;96981.91;;;10.15;61.70
77631;BME280;66798;47.370;8.552;2023-03-20T20:04:40;96979.25;;;10.10;62.25
77631;BME280;66798;47.370;8.552;2023-03-20T20:07:05;96977.69;;;10.09;61.99
77631;BME280;66798;47.370;8.552;2023-03-20T20:09:31;96979.22;;;10.05;61.43
77631;BME280;66798;47.370;8.552;2023-03-20T20:11:56;96977.41;;;10.10;61.18
77631;BME280;66798;47.370;8.552;2023-03-20T20:14:22;96970.81;;;10.08;61.09
77631;BME280;66798;47.370;8.552;2023-03-20T20:16:48;96964.81;;;10.12;60.49
77631;BME280;66798;47.370;8.552;2023-03-20T20:19:17;96977.47;;;10.15;61.09
77631;BME280;66798;47.370;8.552;2023-03-20T20:21:43;96979.84;;;10.22;60.79
77631;BME280;66798;47.370;8.552;2023-03-20T20:24:09;96975.13;;;10.24;60.78
77631;BME280;66798;47.370;8.552;2023-03-20T20:26:35;96974.88;;;10.20;60.92
77631;BME280;66798;47.370;8.552;2023-03-20T20:29:01;96977.94;;;10.07;61.75
77631;BME280;66798;47.370;8.552;2023-03-20T20:31:28;96972.88;;;10.00;63.03
77631;BME280;66798;47.370;8.552;2023-03-20T20:33:54;96972.56;;;9.87;63.47
77631;BME280;66798;47.370;8.552;2023-03-20T20:36:20;96967.53;;;9.85;63.71
77631;BME280;66798;47.370;8.552;2023-03-20T20:38:45;96968.84;;;9.83;63.85
77631;BME280;66798;47.370;8.552;2023-03-20T20:41:11;96973.59;;;9.86;63.71
77631;BME280;66798;47.370;8.552;2023-03-20T20:43:36;96967.25;;;9.82;64.00
77631;BME280;66798;47.370;8.552;2023-03-20T20:46:02;96968.56;;;9.84;64.21
77631;BME280;66798;47.370;8.552;2023-03-20T20:48:27;96958.06;;;9.84;63.75
77631;BME280;66798;47.370;8.552;2023-03-20T20:50:58;96955.84;;;9.66;63.83
77631;BME280;66798;47.370;8.552;2023-03-20T20:53:24;96951.06;;;9.63;64.45
77631;BME280;66798;47.370;8.552;2023-03-20T20:55:50;96953.75;;;9.68;64.41
77631;BME280;66798;47.370;8.552;2023-03-20T20:58:15;96953.94;;;9.56;64.73
77631;BME280;66798;47.370;8.552;2023-03-20T21:00:41;96956.25;;;9.52;64.86
77631;BME280;66798;47.370;8.552;2023-03-20T21:03:06;96964.38;;;9.51;65.28
77631;BME280;66798;47.370;8.552;2023-03-20T21:05:34;96962.06;;;9.54;65.10
77631;BME280;66798;47.370;8.552;2023-03-20T21:08:01;96962.06;;;9.54;64.91
77631;BME280;66798;47.370;8.552;2023-03-20T21:10:27;96964.69;;;9.54;65.08
77631;BME280;66798;47.370;8.552;2023-03-20T21:12:52;96961.75;;;9.51;65.38
77631;BME280;66798;47.370;8.552;2023-03-20T21:15:17;96960.13;;;9.45;65.56